Time;durP1;ratioP1;P1;durP2;ratioP2;P2;SDS_P1;SDS_P2;PMS_P1;PMS_P2;Temp;Humidity;BMP_temperature;BMP_pressure;BME280_temperature;BME280_humidity;BME280_pressure;Samples;Min_cycle;Max_cycle;Signal;HPM_P1;HPM_P2
2022/03/04 00:01:00;;;;;;;32.50;16.80;;;;;;;-0.18;100.00;96336.72;5038515;28;20075;-58
2022/03/04 00:03:30;;;;;;;29.60;16.02;;;;;;;-0.20;100.00;96341.16;5042995;28;20076;-57
2022/03/04 00:05:58;;;;;;;32.40;18.15;;;;;;;-0.19;100.00;96343.66;5048378;28;20563;-59
2022/03/04 00:08:26;;;;;;;27.10;16.33;;;;;;;-0.15;100.00;96354.72;5039737;28;20072;-59
2022/03/04 00:10:55;;;;;;;27.88;16.25;;;;;;;-0.13;100.00;96342.53;5040520;28;20083;-55
2022/03/04 00:13:23;;;;;;;28.30;16.30;;;;;;;-0.12;100.00;96345.00;5041599;28;20099;-57
2022/03/04 00:15:53;;;;;;;28.20;17.20;;;;;;;-0.02;100.00;96341.00;5044123;28;20073;-58
2022/03/04 00:18:21;;;;;;;30.27;16.55;;;;;;;-0.13;100.00;96345.09;5028235;28;20528;-58
2022/03/04 00:20:50;;;;;;;30.50;16.70;;;;;;;-0.20;100.00;96351.53;5039758;28;20084;-54
2022/03/04 00:23:19;;;;;;;27.65;16.63;;;;;;;-0.28;100.00;96350.16;5039570;28;20150;-54
2022/03/04 00:25:48;;;;;;;27.52;15.98;;;;;;;-0.21;100.00;96352.44;5041740;28;20084;-55
2022/03/04 00:28:16;;;;;;;31.42;17.67;;;;;;;-0.20;100.00;96356.72;5044397;28;20469;-59
2022/03/04 00:30:44;;;;;;;30.05;16.20;;;;;;;-0.25;100.00;96349.16;5044143;28;20065;-57
2022/03/04 00:33:14;;;;;;;29.58;16.55;;;;;;;-0.26;100.00;96353.53;5040679;28;20068;-56
2022/03/04 00:35:42;;;;;;;26.48;15.68;;;;;;;-0.21;100.00;96357.63;5024643;28;20071;-58
2022/03/04 00:38:10;;;;;;;29.90;15.73;;;;;;;-0.31;100.00;96357.25;5045301;28;20440;-56
2022/03/04 00:40:39;;;;;;;31.48;15.93;;;;;;;-0.41;100.00;96367.28;5045725;28;20080;-57
2022/03/04 00:43:07;;;;;;;31.35;16.67;;;;;;;-0.36;100.00;96361.88;5040059;28;20336;-58
2022/03/04 00:45:35;;;;;;;28.52;16.08;;;;;;;-0.40;100.00;96361.19;5039646;28;20069;-58
2022/03/04 00:48:04;;;;;;;28.25;17.25;;;;;;;-0.39;100.00;96364.59;5047384;28;20083;-58
2022/03/04 00:50:34;;;;;;;31.80;16.83;;;;;;;-0.34;100.00;96363.47;5037920;28;20520;-58
2022/03/04 00:53:02;;;;;;;29.00;16.15;;;;;;;-0.38;100.00;96359.38;5038764;28;20080;-56
2022/03/04 00:55:31;;;;;;;31.20;16.65;;;;;;;-0.42;100.00;96375.97;5040409;28;20112;-58
2022/03/04 00:57:59;;;;;;;28.60;15.98;;;;;;;-0.49;100.00;96366.84;5040777;28;20073;-54
2022/03/04 01:00:28;;;;;;;29.85;16.88;;;;;;;-0.63;100.00;96369.31;5039667;28;21415;-57
2022/03/04 01:02:56;;;;;;;29.00;17.58;;;;;;;-0.68;100.00;96361.78;5031064;28;20516;-57
2022/03/04 01:05:25;;;;;;;29.42;17.42;;;;;;;-0.67;100.00;96362.59;5027467;28;20084;-55
2022/03/04 01:07:54;;;;;;;30.58;16.73;;;;;;;-0.73;100.00;96355.97;5040604;28;20103;-57
2022/03/04 01:10:23;;;;;;;29.97;16.23;;;;;;;-0.72;100.00;96357.69;5038790;28;20072;-58
2022/03/04 01:12:51;;;;;;;31.50;16.35;;;;;;;-0.74;100.00;96359.50;5040489;28;20535;-55
2022/03/04 01:15:19;;;;;;;30.67;16.80;;;;;;;-0.74;100.00;96352.56;5041503;28;20060;-55
2022/03/04 01:17:48;;;;;;;30.17;16.17;;;;;;;-0.76;100.00;96351.81;5036079;28;20073;-57
2022/03/04 01:20:16;;;;;;;31.40;16.48;;;;;;;-0.74;100.00;96347.38;5042383;28;20068;-56
2022/03/04 01:22:45;;;;;;;29.58;17.25;;;;;;;-0.67;100.00;96341.91;5044097;28;20195;-58
2022/03/04 01:25:15;;;;;;;31.55;17.05;;;;;;;-0.73;100.00;96349.06;5042178;28;20536;-58
2022/03/04 01:27:43;;;;;;;30.98;16.13;;;;;;;-0.68;100.00;96340.22;5035791;28;20103;-55
2022/03/04 01:30:14;;;;;;;31.60;16.27;;;;;;;-0.76;100.00;96340.59;5038660;28;20080;-56
2022/03/04 01:32:42;;;;;;;30.20;16.48;;;;;;;-0.75;100.00;96344.88;5039634;28;20460;-57
2022/03/04 01:35:11;;;;;;;29.33;15.57;;;;;;;-0.82;100.00;96344.34;5035605;28;20068;-58
2022/03/04 01:37:39;;;;;;;31.25;16.58;;;;;;;-0.86;100.00;96331.63;5042568;28;20447;-57
2022/03/04 01:40:09;;;;;;;29.40;16.10;;;;;;;-0.98;100.00;96335.69;5039699;28;20084;-55
2022/03/04 01:42:39;;;;;;;31.52;16.42;;;;;;;-0.97;100.00;96325.25;5042674;28;20076;-57
2022/03/04 01:45:09;;;;;;;29.85;17.27;;;;;;;-1.05;100.00;96329.97;5035732;28;20080;-53
2022/03/04 01:47:41;;;;;;;28.30;16.00;;;;;;;-1.05;100.00;96332.56;5039297;28;20077;-55
2022/03/04 01:50:10;;;;;;;28.15;17.23;;;;;;;-0.98;100.00;96330.50;5039030;28;20574;-52
2022/03/04 01:52:39;;;;;;;28.83;16.30;;;;;;;-0.98;100.00;96333.09;5041030;28;20631;-56
2022/03/04 01:55:09;;;;;;;30.02;15.85;;;;;;;-1.02;100.00;96329.00;5037670;28;20092;-58
2022/03/04 01:57:39;;;;;;;30.93;15.90;;;;;;;-0.99;100.00;96321.91;5040681;28;20095;-56
2022/03/04 02:00:10;;;;;;;28.70;16.23;;;;;;;-1.02;100.00;96323.81;5038043;28;20502;-58
2022/03/04 02:02:38;;;;;;;29.48;16.58;;;;;;;-1.01;100.00;96328.06;5034799;28;20070;-56
2022/03/04 02:05:07;;;;;;;30.30;16.55;;;;;;;-1.08;100.00;96326.72;5041880;28;20084;-57
2022/03/04 02:07:36;;;;;;;35.25;16.85;;;;;;;-1.15;100.00;96323.59;5038946;28;20139;-58
2022/03/04 02:10:05;;;;;;;26.05;15.65;;;;;;;-1.23;100.00;96317.97;5042789;28;20092;-53
2022/03/04 02:12:33;;;;;;;32.88;17.05;;;;;;;-1.35;100.00;96319.41;5036807;28;20077;-58
2022/03/04 02:15:03;;;;;;;30.50;16.38;;;;;;;-1.25;100.00;96318.03;5021922;28;20064;-57
2022/03/04 02:17:31;;;;;;;28.85;16.52;;;;;;;-1.24;100.00;96314.56;5038605;28;20064;-55
2022/03/04 02:20:01;;;;;;;28.65;16.42;;;;;;;-1.21;100.00;96309.19;5038973;28;20072;-56
2022/03/04 02:22:31;;;;;;;30.95;16.05;;;;;;;-1.22;100.00;96307.53;5039058;28;20069;-58
2022/03/04 02:24:59;;;;;;;29.25;16.70;;;;;;;-1.25;100.00;96306.84;5042106;28;20527;-58
2022/03/04 02:27:27;;;;;;;29.45;16.38;;;;;;;-1.32;100.00;96302.91;5040368;28;20456;-54
2022/03/04 02:29:56;;;;;;;28.90;15.95;;;;;;;-1.57;100.00;96308.44;5036338;28;20077;-56
2022/03/04 02:32:24;;;;;;;28.63;15.98;;;;;;;-1.78;100.00;96305.16;5040922;28;20531;-57
2022/03/04 02:34:52;;;;;;;29.13;16.20;;;;;;;-1.86;100.00;96305.50;5039183;28;20471;-54
2022/03/04 02:37:21;;;;;;;34.75;16.73;;;;;;;-1.78;100.00;96306.00;5035235;28;20104;-55
2022/03/04 02:39:51;;;;;;;28.98;15.93;;;;;;;-1.89;100.00;96302.22;5039958;28;20103;-58
2022/03/04 02:42:19;;;;;;;29.90;15.90;;;;;;;-1.95;100.00;96303.38;5044982;28;20095;-57
2022/03/04 02:44:47;;;;;;;27.50;15.95;;;;;;;-1.98;100.00;96303.50;5043850;28;20087;-56
2022/03/04 02:47:15;;;;;;;28.30;15.27;;;;;;;-1.91;100.00;96305.72;5039739;28;20077;-53
2022/03/04 02:49:48;;;;;;;28.98;16.73;;;;;;;-1.98;100.00;96295.75;5042448;28;20539;-59
2022/03/04 02:52:16;;;;;;;34.05;17.33;;;;;;;-1.99;100.00;96297.50;5040944;28;20083;-57
2022/03/04 02:54:45;;;;;;;28.05;15.90;;;;;;;-2.02;100.00;96302.81;5033066;28;20468;-56
2022/03/04 02:57:14;;;;;;;27.50;16.10;;;;;;;-2.06;100.00;96305.63;5040074;28;20069;-53
2022/03/04 02:59:42;;;;;;;31.40;16.33;;;;;;;-2.09;100.00;96298.84;5037386;28;20449;-57
2022/03/04 03:02:11;;;;;;;33.47;17.02;;;;;;;-2.12;100.00;96293.81;5044550;28;20077;-57
2022/03/04 03:04:39;;;;;;;27.75;16.50;;;;;;;-2.20;100.00;96299.34;5027464;28;20076;-54
2022/03/04 03:07:08;;;;;;;27.05;16.52;;;;;;;-2.15;100.00;96306.88;5026225;28;20183;-57
2022/03/04 03:09:36;;;;;;;30.05;16.40;;;;;;;-2.15;100.00;96297.38;5037261;28;20217;-55
2022/03/04 03:12:05;;;;;;;30.02;16.60;;;;;;;-2.17;100.00;96304.38;5038691;28;20072;-54
2022/03/04 03:14:35;;;;;;;29.73;16.65;;;;;;;-2.15;100.00;96304.28;5039849;28;21023;-57
2022/03/04 03:17:04;;;;;;;35.13;17.93;;;;;;;-2.19;100.00;96300.19;5041294;28;20077;-52
2022/03/04 03:19:32;;;;;;;29.75;17.20;;;;;;;-2.22;100.00;96306.31;5032753;28;20431;-54
2022/03/04 03:22:00;;;;;;;33.13;17.00;;;;;;;-2.43;100.00;96302.97;5033988;28;20120;-54
2022/03/04 03:24:29;;;;;;;28.90;16.23;;;;;;;-2.53;100.00;96306.88;5039089;28;20087;-54
2022/03/04 03:26:57;;;;;;;32.67;16.75;;;;;;;-2.78;100.00;96307.13;5036359;28;20077;-55
2022/03/04 03:29:25;;;;;;;33.78;17.75;;;;;;;-2.81;100.00;96309.84;5037923;28;20069;-57
2022/03/04 03:31:55;;;;;;;28.20;16.40;;;;;;;-3.01;100.00;96315.84;5038318;28;20069;-57
2022/03/04 03:34:23;;;;;;;28.35;16.30;;;;;;;-2.97;100.00;96317.41;5037210;28;20079;-57
2022/03/04 03:36:52;;;;;;;30.58;16.80;;;;;;;-2.89;100.00;96309.31;5037102;28;20069;-54
2022/03/04 03:39:20;;;;;;;31.02;17.80;;;;;;;-2.82;100.00;96312.47;5038028;28;20080;-53
2022/03/04 03:41:48;;;;;;;30.52;17.48;;;;;;;-2.89;100.00;96309.31;5038282;28;20060;-53
2022/03/04 03:44:16;;;;;;;30.92;16.95;;;;;;;-2.78;100.00;96317.44;5041415;28;20129;-57
2022/03/04 03:46:45;;;;;;;33.20;18.23;;;;;;;-2.74;100.00;96315.56;5040834;28;20641;-54
2022/03/04 03:49:14;;;;;;;30.73;17.27;;;;;;;-2.70;100.00;96325.69;5042211;28;20085;-58
2022/03/04 03:51:43;;;;;;;36.85;17.60;;;;;;;-2.77;100.00;96328.59;5040250;28;20087;-52
2022/03/04 03:54:11;;;;;;;29.27;17.50;;;;;;;-2.78;100.00;96327.78;5039193;28;20558;-54
2022/03/04 03:56:39;;;;;;;30.63;18.20;;;;;;;-2.83;100.00;96331.44;5039435;28;20544;-52
2022/03/04 03:59:08;;;;;;;31.25;16.60;;;;;;;-2.92;100.00;96335.28;5042000;28;20091;-56
2022/03/04 04:01:36;;;;;;;32.65;16.95;;;;;;;-2.86;100.00;96347.88;5041474;28;20524;-57
2022/03/04 04:04:05;;;;;;;32.15;16.83;;;;;;;-2.96;100.00;96344.03;5042514;28;20143;-58
2022/03/04 04:06:35;;;;;;;30.15;17.27;;;;;;;-3.09;100.00;96338.56;5042495;28;20079;-57
2022/03/04 04:09:03;;;;;;;30.87;16.87;;;;;;;-3.14;100.00;96341.31;5033161;28;20079;-54
2022/03/04 04:11:32;;;;;;;31.10;16.65;;;;;;;-3.09;100.00;96343.72;5034266;28;20531;-57
2022/03/04 04:14:00;;;;;;;35.38;17.63;;;;;;;-3.07;100.00;96347.06;5022075;28;20072;-57
2022/03/04 04:16:28;;;;;;;30.27;17.65;;;;;;;-3.15;100.00;96342.22;5039843;28;20077;-54
2022/03/04 04:18:57;;;;;;;30.13;17.30;;;;;;;-3.16;100.00;96350.06;5038261;28;20084;-55
2022/03/04 04:21:26;;;;;;;32.47;16.88;;;;;;;-3.17;100.00;96356.91;5036461;28;20128;-56
2022/03/04 04:23:56;;;;;;;33.75;17.75;;;;;;;-3.28;100.00;96356.53;5043598;28;20539;-52
2022/03/04 04:26:26;;;;;;;29.10;16.75;;;;;;;-3.40;100.00;96364.78;5042186;28;20080;-55
2022/03/04 04:28:54;;;;;;;29.58;16.17;;;;;;;-3.43;100.00;96354.59;5036819;28;20068;-54
2022/03/04 04:31:22;;;;;;;29.77;17.30;;;;;;;-3.46;100.00;96358.13;5040317;28;20072;-53
2022/03/04 04:33:51;;;;;;;30.08;16.67;;;;;;;-3.51;100.00;96359.19;5042383;28;20061;-56
2022/03/04 04:36:19;;;;;;;30.45;17.10;;;;;;;-3.49;100.00;96354.84;5038094;28;20204;-57
2022/03/04 04:38:48;;;;;;;30.58;16.20;;;;;;;-3.51;100.00;96361.78;5021565;28;20064;-57
2022/03/04 04:41:18;;;;;;;29.23;16.20;;;;;;;-3.46;100.00;96362.44;5044068;28;20073;-57
2022/03/04 04:43:46;;;;;;;34.83;17.48;;;;;;;-3.46;100.00;96363.28;5036923;28;20073;-59
2022/03/04 04:46:14;;;;;;;34.28;17.27;;;;;;;-3.42;100.00;96366.56;5040613;28;20721;-57
2022/03/04 04:48:43;;;;;;;31.40;16.58;;;;;;;-3.38;100.00;96370.69;5041451;28;20441;-58
2022/03/04 04:51:11;;;;;;;29.63;16.92;;;;;;;-3.35;100.00;96370.59;5042056;28;20084;-57
2022/03/04 04:53:39;;;;;;;31.20;16.25;;;;;;;-3.31;100.00;96361.81;5025180;28;20080;-57
2022/03/04 04:56:08;;;;;;;30.17;17.17;;;;;;;-3.24;100.00;96365.81;5042217;28;20478;-60
2022/03/04 04:58:38;;;;;;;33.80;17.02;;;;;;;-3.18;100.00;96367.31;5028791;28;20072;-54
2022/03/04 05:01:07;;;;;;;28.30;17.60;;;;;;;-3.14;100.00;96367.13;5047730;28;20099;-57
2022/03/04 05:03:35;;;;;;;33.70;17.10;;;;;;;-3.17;100.00;96367.22;5042969;28;20503;-58
2022/03/04 05:06:04;;;;;;;30.42;17.27;;;;;;;-3.20;100.00;96367.41;5040806;28;20096;-57
2022/03/04 05:08:33;;;;;;;30.80;16.98;;;;;;;-3.18;100.00;96368.16;5044008;28;20072;-57
2022/03/04 05:11:02;;;;;;;32.45;17.30;;;;;;;-3.17;100.00;96367.22;5040534;28;20076;-57
2022/03/04 05:13:31;;;;;;;28.05;17.85;;;;;;;-3.16;100.00;96374.09;5043529;28;20523;-58
2022/03/04 05:16:00;;;;;;;29.83;17.25;;;;;;;-3.18;100.00;96382.78;5045925;28;20076;-56
2022/03/04 05:18:29;;;;;;;30.83;16.83;;;;;;;-3.30;100.00;96383.28;5041268;28;20068;-56
2022/03/04 05:20:58;;;;;;;28.17;16.02;;;;;;;-3.34;100.00;96374.81;5037408;28;20076;-51
2022/03/04 05:26:12;;;;;;;33.42;17.83;;;;;;;-3.42;100.00;96390.59;5028155;28;20072;-53
2022/03/04 05:28:41;;;;;;;28.95;16.67;;;;;;;-3.48;100.00;96390.00;5046450;28;20072;-56
2022/03/04 05:31:10;;;;;;;33.33;17.98;;;;;;;-3.27;100.00;96396.03;5042811;28;20080;-56
2022/03/04 05:33:39;;;;;;;33.58;17.67;;;;;;;-3.14;100.00;96395.47;5044771;28;20107;-58
2022/03/04 05:36:07;;;;;;;29.88;16.50;;;;;;;-3.17;100.00;96393.03;5022862;28;20069;-59
2022/03/04 05:38:35;;;;;;;36.35;17.80;;;;;;;-3.21;100.00;96390.66;5033561;28;20191;-57
2022/03/04 05:41:04;;;;;;;33.10;17.73;;;;;;;-3.21;100.00;96393.22;5039349;28;20087;-61
2022/03/04 05:43:32;;;;;;;29.48;16.05;;;;;;;-3.18;100.00;96401.66;5039865;28;20080;-60
2022/03/04 05:46:01;;;;;;;34.15;17.02;;;;;;;-3.31;100.00;96400.50;5036716;28;20065;-60
2022/03/04 05:48:31;;;;;;;33.22;17.60;;;;;;;-3.27;100.00;96399.50;5037215;28;20088;-57
2022/03/04 05:51:00;;;;;;;31.55;17.33;;;;;;;-3.24;100.00;96411.41;5036151;28;20092;-60
2022/03/04 05:53:28;;;;;;;28.85;17.02;;;;;;;-3.31;100.00;96415.13;5033593;28;20061;-58
2022/03/04 05:55:56;;;;;;;32.10;16.75;;;;;;;-3.40;100.00;96406.03;5046781;28;20208;-57
2022/03/04 05:58:25;;;;;;;32.58;18.10;;;;;;;-3.44;100.00;96414.75;5044588;28;20085;-55
2022/03/04 06:00:53;;;;;;;33.08;17.00;;;;;;;-3.44;100.00;96420.78;5042989;28;20103;-54
2022/03/04 06:03:22;;;;;;;34.63;17.40;;;;;;;-3.34;100.00;96410.91;5041830;28;20096;-54
2022/03/04 06:05:51;;;;;;;32.30;17.17;;;;;;;-3.42;100.00;96420.72;5041258;28;20072;-57
2022/03/04 06:08:20;;;;;;;40.33;18.07;;;;;;;-3.17;100.00;96421.38;5041198;28;20080;-53
2022/03/04 06:10:48;;;;;;;42.80;18.13;;;;;;;-3.20;100.00;96423.25;5033682;28;20947;-57
2022/03/04 06:13:17;;;;;;;35.55;18.13;;;;;;;-3.64;100.00;96426.72;5032871;28;20072;-56
2022/03/04 06:15:45;;;;;;;41.15;18.45;;;;;;;-3.35;100.00;96432.44;5041253;28;20065;-54
2022/03/04 06:18:13;;;;;;;41.47;19.60;;;;;;;-3.16;100.00;96433.41;5039581;28;20077;-54
2022/03/04 06:20:42;;;;;;;44.13;23.02;;;;;;;-2.99;100.00;96440.47;5036357;28;20079;-58
2022/03/04 06:23:13;;;;;;;40.15;20.30;;;;;;;-2.90;100.00;96445.22;5033829;28;20081;-60
2022/03/04 06:25:41;;;;;;;36.28;20.17;;;;;;;-2.85;100.00;96450.22;5031636;28;20076;-55
2022/03/04 06:28:09;;;;;;;39.13;20.27;;;;;;;-2.91;100.00;96445.31;5040912;28;20077;-59
2022/03/04 06:30:38;;;;;;;35.90;20.40;;;;;;;-2.65;100.00;96445.06;5035758;28;20073;-56
2022/03/04 06:35:54;;;;;;;34.95;18.50;;;;;;;-2.40;100.00;96456.94;5036928;28;20080;-58
2022/03/04 06:38:24;;;;;;;36.33;19.05;;;;;;;-2.30;100.00;96458.22;5031361;28;20081;-58
2022/03/04 06:40:53;;;;;;;30.58;18.50;;;;;;;-2.21;100.00;96459.53;5039598;28;20071;-54
2022/03/04 06:43:21;;;;;;;38.88;18.40;;;;;;;-2.15;100.00;96465.28;5041036;28;20144;-56
2022/03/04 06:45:49;;;;;;;31.30;18.25;;;;;;;-2.23;100.00;96469.13;5036558;28;20100;-52
2022/03/04 06:48:20;;;;;;;28.05;16.75;;;;;;;-2.18;100.00;96467.16;5032115;28;20477;-56
2022/03/04 06:50:48;;;;;;;;;;;;;;;-1.91;100.00;96470.28;5037054;28;20073;-59
2022/03/04 06:53:16;;;;;;;31.20;16.27;;;;;;;-1.97;100.00;96471.38;5027013;28;19999;-57
2022/03/04 06:55:47;;;;;;;31.73;18.08;;;;;;;-1.63;100.00;96469.03;5045586;28;20080;-59
2022/03/04 06:58:16;;;;;;;29.80;16.33;;;;;;;-1.46;100.00;96477.69;5036345;28;20416;-56
2022/03/04 07:00:44;;;;;;;33.22;16.75;;;;;;;-1.36;100.00;96474.69;5038625;28;20080;-58
2022/03/04 07:03:14;;;;;;;31.58;17.52;;;;;;;-1.25;100.00;96473.25;5036651;28;20522;-55
2022/03/04 07:05:43;;;;;;;29.88;16.27;;;;;;;-1.11;100.00;96482.13;5037141;28;20080;-56
2022/03/04 07:08:11;;;;;;;30.98;16.52;;;;;;;-1.04;100.00;96484.31;5015700;28;20083;-60
2022/03/04 07:10:40;;;;;;;31.30;16.05;;;;;;;-0.92;100.00;96479.50;5036858;28;20088;-56
2022/03/04 07:13:10;;;;;;;34.45;18.70;;;;;;;-0.78;100.00;96479.66;5039291;28;20075;-59
2022/03/04 07:15:38;;;;;;;38.43;18.53;;;;;;;-0.58;100.00;96478.69;5035345;28;20060;-57
2022/03/04 07:18:06;;;;;;;33.20;16.95;;;;;;;-0.55;100.00;96479.38;5032513;28;20464;-59
2022/03/04 07:20:35;;;;;;;32.78;17.77;;;;;;;-0.49;100.00;96483.38;5039687;28;20080;-55
2022/03/04 07:23:05;;;;;;;30.92;17.25;;;;;;;-0.33;100.00;96488.66;5040034;28;20087;-55
2022/03/04 07:25:33;;;;;;;38.20;19.00;;;;;;;-0.36;100.00;96488.81;5037452;28;20072;-55
2022/03/04 07:28:02;;;;;;;29.40;18.63;;;;;;;-0.45;100.00;96484.91;5036148;28;20056;-56
2022/03/04 07:30:32;;;;;;;28.40;15.27;;;;;;;-0.19;100.00;96485.34;5034142;28;20669;-55
2022/03/04 07:33:00;;;;;;;35.05;18.15;;;;;;;-0.08;100.00;96489.06;5034345;28;20511;-55
2022/03/04 07:35:29;;;;;;;31.25;17.90;;;;;;;-0.01;100.00;96489.59;5034516;28;20108;-56
2022/03/04 07:37:57;;;;;;;35.67;18.17;;;;;;;-0.02;100.00;96493.94;5036256;28;20065;-56
2022/03/04 07:40:25;;;;;;;30.02;17.60;;;;;;;0.27;100.00;96493.34;5035589;28;20085;-56
2022/03/04 07:42:54;;;;;;;28.63;16.23;;;;;;;0.36;100.00;96492.84;5033659;28;20088;-59
2022/03/04 07:45:22;;;;;;;31.98;17.13;;;;;;;0.38;100.00;96501.38;5036420;28;20344;-56
2022/03/04 07:47:51;;;;;;;35.60;17.83;;;;;;;0.58;100.00;96493.38;5038728;28;20077;-55
2022/03/04 07:50:20;;;;;;;43.42;19.17;;;;;;;0.89;100.00;96495.13;5032023;28;20133;-60
2022/03/04 07:52:50;;;;;;;31.70;18.38;;;;;;;0.81;100.00;96499.91;5040025;28;20061;-55
2022/03/04 07:55:18;;;;;;;30.02;16.85;;;;;;;1.00;100.00;96507.53;5037802;28;20084;-58
2022/03/04 07:57:47;;;;;;;33.47;17.45;;;;;;;1.13;100.00;96494.69;5039559;28;20070;-53
2022/03/04 08:00:17;;;;;;;34.30;17.65;;;;;;;1.14;100.00;96506.78;5033563;28;20073;-59
2022/03/04 08:02:45;;;;;;;33.53;19.63;;;;;;;1.21;100.00;96499.47;5029569;28;20088;-59
2022/03/04 08:05:15;;;;;;;32.83;18.02;;;;;;;1.28;100.00;96503.41;5038960;28;20080;-58
2022/03/04 08:07:43;;;;;;;37.20;18.08;;;;;;;1.46;100.00;96504.94;5038512;28;20084;-56
2022/03/04 08:10:12;;;;;;;28.67;16.38;;;;;;;1.47;100.00;96504.00;5037905;28;20068;-59
2022/03/04 08:12:40;;;;;;;28.90;17.00;;;;;;;1.51;100.00;96510.69;5032604;28;20073;-58
2022/03/04 08:15:10;;;;;;;31.52;17.55;;;;;;;1.66;100.00;96504.63;5032402;28;20085;-58
2022/03/04 08:17:39;;;;;;;30.02;17.33;;;;;;;1.89;100.00;96515.44;5023405;28;20037;-58
2022/03/04 08:20:08;;;;;;;32.53;17.92;;;;;;;1.88;100.00;96516.38;5040773;28;20069;-56
2022/03/04 08:22:38;;;;;;;29.70;17.38;;;;;;;2.00;97.67;96515.66;5040329;28;20473;-55
2022/03/04 08:25:07;;;;;;;30.27;16.48;;;;;;;2.09;95.84;96519.47;5038545;28;20093;-57
2022/03/04 08:27:39;;;;;;;28.17;16.83;;;;;;;2.10;94.82;96515.97;5030627;28;20079;-56
2022/03/04 08:30:09;;;;;;;30.95;17.38;;;;;;;2.36;93.74;96517.81;5038447;28;20551;-58
2022/03/04 08:32:37;;;;;;;26.13;16.27;;;;;;;2.25;93.05;96516.81;5043660;28;20084;-55
2022/03/04 08:35:08;;;;;;;30.00;17.42;;;;;;;2.40;88.40;96518.47;5042156;28;20620;-55
2022/03/04 08:37:38;;;;;;;28.60;17.17;;;;;;;2.47;90.11;96524.13;5038462;28;20069;-57
2022/03/04 08:40:09;;;;;;;29.05;17.05;;;;;;;2.88;90.55;96513.78;5031186;28;20076;-57
2022/03/04 08:42:38;;;;;;;30.63;17.77;;;;;;;2.44;90.66;96524.31;5044455;28;20072;-58
2022/03/04 08:45:08;;;;;;;28.25;16.77;;;;;;;2.67;88.09;96520.31;5037486;28;20057;-58
2022/03/04 08:47:37;;;;;;;28.95;17.02;;;;;;;2.78;91.37;96520.47;5044524;28;20054;-57
2022/03/04 08:50:06;;;;;;;31.60;18.48;;;;;;;3.13;90.21;96520.88;5048492;28;20049;-60
2022/03/04 08:52:35;;;;;;;34.08;18.15;;;;;;;2.97;89.32;96522.78;5045726;28;20081;-57
2022/03/04 08:55:07;;;;;;;32.38;18.42;;;;;;;3.39;89.17;96521.81;5041219;28;20068;-58
2022/03/04 08:57:35;;;;;;;30.02;17.35;;;;;;;3.53;79.08;96520.91;5056150;28;20056;-60
2022/03/04 09:00:05;;;;;;;30.20;16.00;;;;;;;2.96;78.51;96516.75;5049679;28;20046;-55
2022/03/04 09:02:33;;;;;;;34.25;18.77;;;;;;;2.82;79.09;96519.34;5052603;28;20057;-59
2022/03/04 09:05:02;;;;;;;31.80;16.80;;;;;;;3.31;78.76;96522.31;5050245;28;20068;-57
2022/03/04 09:07:34;;;;;;;37.65;21.20;;;;;;;3.06;79.36;96519.59;5046430;28;20472;-58
2022/03/04 09:10:04;;;;;;;32.10;18.08;;;;;;;3.35;78.06;96512.53;5048925;28;20066;-59
2022/03/04 09:12:33;;;;;;;39.88;17.90;;;;;;;3.30;74.88;96515.44;5049624;28;20061;-58
2022/03/04 09:15:01;;;;;;;30.08;17.05;;;;;;;3.55;78.19;96513.84;5049828;28;20053;-55
2022/03/04 09:17:30;;;;;;;26.25;14.52;;;;;;;3.23;72.43;96508.91;5059525;28;20060;-62
2022/03/04 09:19:58;;;;;;;31.52;17.85;;;;;;;3.39;74.11;96518.38;5053772;28;20061;-57
2022/03/04 09:22:26;;;;;;;32.08;17.98;;;;;;;3.60;72.34;96524.78;5052415;28;20057;-59
2022/03/04 09:24:55;;;;;;;27.30;16.15;;;;;;;3.70;71.78;96512.00;5051679;28;20612;-60
2022/03/04 09:27:24;;;;;;;29.58;17.92;;;;;;;3.83;72.61;96517.25;5046489;28;20062;-59
2022/03/04 09:29:52;;;;;;;33.72;19.63;;;;;;;3.66;73.04;96524.41;5050125;28;20049;-56
2022/03/04 09:32:21;;;;;;;32.25;17.85;;;;;;;3.88;73.08;96520.38;5050892;28;20058;-60
2022/03/04 09:34:49;;;;;;;37.83;19.40;;;;;;;4.11;71.99;96517.06;5052490;28;20131;-56
2022/03/04 09:37:17;;;;;;;33.72;21.95;;;;;;;3.74;71.42;96518.69;5051180;28;20049;-61
2022/03/04 09:39:45;;;;;;;30.20;16.55;;;;;;;3.98;73.22;96506.59;5047473;28;20138;-60
2022/03/04 09:42:14;;;;;;;30.80;18.38;;;;;;;3.89;72.02;96499.41;5057110;28;20054;-60
2022/03/04 09:44:43;;;;;;;36.22;18.48;;;;;;;4.16;69.39;96508.91;5059028;28;20056;-59
2022/03/04 09:47:12;;;;;;;34.47;19.77;;;;;;;3.95;72.27;96508.59;5053038;28;20061;-59
2022/03/04 09:49:40;;;;;;;22.90;12.30;;;;;;;4.06;68.43;96508.72;5047647;28;20053;-57
2022/03/04 09:52:08;;;;;;;32.67;18.98;;;;;;;4.52;67.40;96502.97;5050435;28;20056;-60
2022/03/04 09:54:37;;;;;;;33.28;18.35;;;;;;;4.60;64.34;96507.66;5058611;28;20060;-57
2022/03/04 09:57:05;;;;;;;32.00;18.63;;;;;;;4.58;61.71;96502.53;5050525;28;20054;-60
2022/03/04 09:59:34;;;;;;;29.80;16.80;;;;;;;4.18;59.07;96494.00;5048489;28;20513;-59
2022/03/04 10:02:04;;;;;;;31.02;19.05;;;;;;;4.73;59.54;96493.63;5056968;28;20048;-58
2022/03/04 10:04:33;;;;;;;27.50;17.48;;;;;;;4.42;59.19;96491.47;5052279;28;20448;-61
2022/03/04 10:07:09;;;;;;;31.08;17.58;;;;;;;4.17;54.16;96495.78;5053282;28;20057;-60
2022/03/04 10:09:41;;;;;;;30.90;16.90;;;;;;;4.55;54.26;96500.13;5050454;28;20054;-59
2022/03/04 10:12:10;;;;;;;32.47;19.65;;;;;;;4.60;53.69;96498.03;5051971;28;20060;-61
2022/03/04 10:14:56;;;;;;;30.17;17.65;;;;;;;4.41;53.45;96495.03;5051335;28;20064;-58
2022/03/04 10:18:01;;;;;;;31.73;18.23;;;;;;;4.70;53.92;96493.00;5052399;28;20051;-60
2022/03/04 10:20:37;;;;;;;31.77;19.30;;;;;;;4.74;53.74;96487.44;5043136;28;20057;-61
2022/03/04 10:23:13;;;;;;;32.67;18.65;;;;;;;4.79;53.38;96487.16;5046106;28;20045;-61
2022/03/04 10:25:44;;;;;;;27.40;17.13;;;;;;;4.47;53.25;96507.66;5053807;28;20064;-59
2022/03/04 10:28:13;;;;;;;30.77;18.55;;;;;;;4.90;52.72;96491.59;5049788;28;20056;-58
2022/03/04 10:30:44;;;;;;;29.35;16.65;;;;;;;4.85;51.07;96485.84;5046051;28;20056;-62
2022/03/04 10:33:15;;;;;;;29.98;18.50;;;;;;;4.76;50.81;96503.84;5050692;28;20050;-62
2022/03/04 10:35:45;;;;;;;31.58;17.85;;;;;;;4.96;51.96;96493.78;5043372;28;20417;-60
2022/03/04 10:38:21;;;;;;;31.45;17.52;;;;;;;4.73;51.66;96492.78;5046231;28;20060;-58
2022/03/04 10:40:50;;;;;;;36.10;18.42;;;;;;;5.20;52.70;96489.41;5053791;28;20508;-61
2022/03/04 10:43:23;;;;;;;30.00;18.42;;;;;;;5.42;53.38;96493.06;5040037;28;20053;-62
2022/03/04 10:46:02;;;;;;;27.90;16.17;;;;;;;5.13;52.15;96487.34;5045115;28;20591;-60
2022/03/04 10:48:32;;;;;;;29.27;18.23;;;;;;;5.34;51.97;96491.03;5043264;28;20057;-61
2022/03/04 10:51:05;;;;;;;30.92;18.75;;;;;;;5.31;50.13;96490.41;5045484;28;20059;-60
2022/03/04 10:53:34;;;;;;;29.13;18.63;;;;;;;5.55;50.19;96487.78;5049301;28;20055;-59
2022/03/04 10:56:05;;;;;;;28.65;14.98;;;;;;;5.08;50.64;96484.22;5039651;28;20050;-60
2022/03/04 10:58:38;;;;;;;32.22;18.50;;;;;;;5.25;53.37;96494.31;5041162;28;20057;-58
2022/03/04 11:01:09;;;;;;;31.45;18.13;;;;;;;5.21;52.68;96493.69;5042717;28;20452;-61
2022/03/04 11:03:42;;;;;;;29.48;17.98;;;;;;;5.57;51.73;96488.50;5047331;28;20045;-56
2022/03/04 11:06:11;;;;;;;30.15;17.77;;;;;;;5.74;52.30;96482.84;5043612;28;20080;-63
2022/03/04 11:08:42;;;;;;;34.67;17.75;;;;;;;5.82;50.05;96471.84;5043084;28;20053;-61
2022/03/04 11:11:10;;;;;;;;;;;;;;;5.24;50.21;96474.34;5050120;28;20057;-58
2022/03/04 11:13:39;;;;;;;35.50;19.75;;;;;;;5.10;51.08;96474.50;5045110;28;19921;-61
2022/03/04 11:16:08;;;;;;;30.67;18.00;;;;;;;5.99;51.03;96476.66;5043326;28;20429;-59
2022/03/04 11:18:37;;;;;;;32.25;17.40;;;;;;;5.47;49.23;96478.72;5046457;28;20057;-62
2022/03/04 11:21:07;;;;;;;28.88;15.75;;;;;;;5.66;47.54;96479.97;5045618;28;20065;-61
2022/03/04 11:23:37;;;;;;;29.77;18.10;;;;;;;5.48;48.96;96476.94;5044743;28;20077;-59
2022/03/04 11:26:07;;;;;;;33.22;17.65;;;;;;;5.26;48.29;96476.81;5044408;28;20056;-60
2022/03/04 11:28:36;;;;;;;;;;;;;;;5.88;49.23;96466.09;5038636;28;20058;-63